Time;durP1;ratioP1;P1;durP2;ratioP2;P2;SDS_P1;SDS_P2;PMS_P1;PMS_P2;Temp;Humidity;BMP_temperature;BMP_pressure;BME280_temperature;BME280_humidity;BME280_pressure;Samples;Min_cycle;Max_cycle;Signal;HPM_P1;HPM_P2
2022/12/05 00:02:22;;;;;;;44.38;24.83;;;3.50;99.90;;;;;;5138380;27;20178;-61
2022/12/05 00:04:48;;;;;;;46.70;25.20;;;3.30;99.90;;;;;;5119992;27;20183;-61
2022/12/05 00:07:14;;;;;;;46.97;24.70;;;3.30;99.90;;;;;;5138393;27;20180;-61
2022/12/05 00:09:39;;;;;;;39.57;23.87;;;3.30;99.90;;;;;;5138472;27;20168;-60
2022/12/05 00:12:05;;;;;;;40.83;23.87;;;3.50;99.90;;;;;;5138687;27;20180;-60
2022/12/05 00:14:31;;;;;;;40.63;23.77;;;3.50;99.90;;;;;;5102831;27;20183;-61
2022/12/05 00:16:56;;;;;;;42.33;24.80;;;3.30;99.90;;;;;;5138389;27;20636;-61
2022/12/05 00:19:22;;;;;;;40.55;24.45;;;3.60;99.90;;;;;;5119307;28;20540;-61
2022/12/05 00:21:48;;;;;;;44.37;24.83;;;3.70;99.90;;;;;;5119366;27;20176;-61
2022/12/05 00:24:15;;;;;;;40.90;22.30;;;3.60;99.90;;;;;;5137446;27;20181;-62
2022/12/05 00:26:42;;;;;;;40.90;23.73;;;3.50;99.90;;;;;;5137987;27;20695;-61
2022/12/05 00:29:08;;;;;;;40.67;23.50;;;3.60;99.90;;;;;;5119120;27;20517;-61
2022/12/05 00:31:34;;;;;;;41.13;23.23;;;3.50;99.90;;;;;;5138005;27;20177;-61
2022/12/05 00:34:01;;;;;;;39.03;22.30;;;3.70;99.90;;;;;;5137761;27;20204;-61
2022/12/05 00:36:29;;;;;;;36.03;22.73;;;3.70;99.90;;;;;;5137857;27;20204;-61
2022/12/05 00:38:55;;;;;;;42.72;24.10;;;3.60;99.90;;;;;;5137440;27;20212;-61
2022/12/05 00:41:23;;;;;;;36.85;22.95;;;3.80;99.90;;;;;;5137701;27;20522;-61
2022/12/05 00:43:49;;;;;;;41.83;24.20;;;4.10;99.90;;;;;;5137573;27;20637;-61
2022/12/05 00:46:18;;;;;;;37.13;23.37;;;3.90;99.90;;;;;;5118022;27;20198;-62
2022/12/05 00:48:44;;;;;;;38.30;23.52;;;3.90;99.90;;;;;;5136590;27;20675;-60
2022/12/05 00:51:16;;;;;;;37.70;22.33;;;3.70;99.90;;;;;;5136331;27;20168;-61
2022/12/05 00:53:43;;;;;;;34.53;21.98;;;3.70;99.90;;;;;;5136701;27;20521;-61
2022/12/05 00:56:12;;;;;;;36.75;22.48;;;3.90;99.90;;;;;;5118297;27;20564;-61
2022/12/05 00:58:38;;;;;;;32.47;20.17;;;4.00;99.90;;;;;;5136342;27;20635;-61
2022/12/05 01:01:08;;;;;;;35.78;21.10;;;3.80;99.90;;;;;;5117763;27;20267;-60
2022/12/05 01:03:33;;;;;;;34.27;21.13;;;4.00;99.90;;;;;;5136124;27;20172;-61
2022/12/05 01:05:59;;;;;;;34.47;21.45;;;3.70;99.90;;;;;;5136036;27;20315;-61
2022/12/05 01:08:25;;;;;;;33.40;20.98;;;3.60;99.90;;;;;;5135999;27;20224;-61
2022/12/05 01:10:56;;;;;;;34.55;21.27;;;4.00;99.90;;;;;;5117852;27;20271;-61
2022/12/05 01:13:23;;;;;;;33.90;20.70;;;4.10;99.90;;;;;;5118190;27;20537;-61
2022/12/05 01:15:49;;;;;;;31.45;20.35;;;4.20;99.90;;;;;;5100865;27;20168;-61
2022/12/05 01:18:16;;;;;;;34.93;21.33;;;4.20;99.90;;;;;;5135728;27;20210;-61
2022/12/05 01:20:42;;;;;;;33.73;21.07;;;4.30;99.90;;;;;;5135984;27;20169;-61
2022/12/05 01:23:08;;;;;;;36.63;20.95;;;4.10;99.90;;;;;;5135781;27;20224;-61
2022/12/05 01:25:34;;;;;;;33.33;20.10;;;4.00;99.90;;;;;;5135788;27;20176;-61
2022/12/05 01:28:00;;;;;;;35.38;21.15;;;4.20;99.90;;;;;;5135792;27;20183;-61
2022/12/05 01:30:26;;;;;;;31.73;19.77;;;4.30;99.90;;;;;;5135730;27;20177;-62
2022/12/05 01:32:51;;;;;;;37.95;21.50;;;4.00;99.90;;;;;;5135366;27;20171;-60
2022/12/05 01:35:17;;;;;;;35.72;21.50;;;3.90;99.90;;;;;;5135700;27;20180;-60
2022/12/05 01:37:43;;;;;;;33.72;21.10;;;4.00;99.90;;;;;;5135462;27;20684;-60
2022/12/05 01:40:09;;;;;;;38.43;22.63;;;4.10;99.90;;;;;;5135504;27;20180;-61
2022/12/05 01:42:34;;;;;;;36.03;22.20;;;4.00;99.90;;;;;;5117218;27;20214;-61
2022/12/05 01:45:28;;;;;;;34.92;21.55;;;4.00;99.90;;;;;;5135338;27;20207;-61
2022/12/05 01:47:54;;;;;;;36.63;21.37;;;4.20;99.90;;;;;;5134898;27;20695;-60
2022/12/05 01:50:20;;;;;;;35.63;21.42;;;4.10;99.90;;;;;;5117040;27;20200;-60
2022/12/05 01:52:45;;;;;;;40.37;22.67;;;4.40;99.90;;;;;;5135257;27;20625;-61
2022/12/05 01:55:14;;;;;;;33.73;20.93;;;4.30;99.90;;;;;;5135145;27;20185;-61
2022/12/05 01:57:41;;;;;;;38.95;22.33;;;4.10;99.90;;;;;;5135003;27;20203;-60
2022/12/05 02:00:18;;;;;;;37.40;23.48;;;4.20;99.90;;;;;;5134911;27;20183;-61
2022/12/05 02:02:51;;;;;;;36.17;22.52;;;4.20;99.90;;;;;;5135275;27;20176;-61
2022/12/05 02:05:25;;;;;;;36.90;22.55;;;4.30;99.90;;;;;;5134919;27;20680;-61
2022/12/05 02:07:51;;;;;;;39.10;22.80;;;4.40;99.90;;;;;;5135082;27;20185;-61
2022/12/05 02:10:17;;;;;;;39.80;22.33;;;4.20;99.90;;;;;;5134769;27;20172;-60
2022/12/05 02:12:44;;;;;;;36.47;22.77;;;4.20;99.90;;;;;;5134669;27;20172;-61
2022/12/05 02:15:36;;;;;;;41.72;23.42;;;4.30;99.90;;;;;;5134912;27;20184;-61
2022/12/05 02:18:08;;;;;;;39.88;23.50;;;4.30;99.90;;;;;;5134695;27;20564;-61
2022/12/05 02:20:46;;;;;;;40.15;21.65;;;4.50;99.90;;;;;;5134715;27;20172;-61
2022/12/05 02:23:21;;;;;;;42.30;23.85;;;4.60;99.90;;;;;;5134836;27;20179;-61
2022/12/05 02:26:05;;;;;;;38.25;22.08;;;4.90;99.90;;;;;;5134999;27;20164;-61
2022/12/05 02:29:14;;;;;;;39.55;23.10;;;5.00;99.90;;;;;;5116194;27;20183;-61
2022/12/05 02:32:09;;;;;;;44.90;22.98;;;5.20;99.90;;;;;;5134974;27;20586;-60
2022/12/05 02:34:51;;;;;;;39.50;22.98;;;4.90;99.90;;;;;;5134639;27;20176;-61
2022/12/05 02:37:25;;;;;;;39.60;23.23;;;4.60;99.90;;;;;;5134424;27;20207;-60
2022/12/05 02:40:18;;;;;;;41.33;23.05;;;4.40;99.90;;;;;;5116606;28;20172;-60
2022/12/05 02:42:50;;;;;;;43.75;22.42;;;4.40;99.90;;;;;;5133743;27;20171;-61
2022/12/05 02:45:18;;;;;;;41.80;23.45;;;4.50;99.90;;;;;;5134138;27;20247;-60
2022/12/05 02:47:49;;;;;;;39.78;23.60;;;4.60;99.90;;;;;;5134202;27;20179;-60
2022/12/05 02:50:21;;;;;;;39.70;22.63;;;4.40;99.90;;;;;;5134233;27;20601;-60
2022/12/05 02:52:49;;;;;;;40.67;22.85;;;4.60;99.90;;;;;;5116187;27;20171;-61
2022/12/05 02:55:17;;;;;;;44.42;23.75;;;4.80;99.90;;;;;;5134165;27;20180;-60
2022/12/05 02:57:48;;;;;;;37.95;23.50;;;4.40;99.90;;;;;;5115909;28;20207;-61
2022/12/05 03:00:14;;;;;;;40.72;22.67;;;4.10;99.90;;;;;;5134262;28;20209;-63
2022/12/05 03:02:40;;;;;;;45.75;23.77;;;4.40;99.90;;;;;;5134006;28;20168;-61
2022/12/05 03:05:17;;;;;;;48.35;24.85;;;4.20;99.90;;;;;;5134361;28;20692;-62
2022/12/05 03:07:47;;;;;;;41.83;23.40;;;4.10;99.90;;;;;;5134137;28;20255;-62
2022/12/05 03:10:14;;;;;;;43.20;23.70;;;4.30;99.90;;;;;;5134263;28;20179;-62
2022/12/05 03:12:46;;;;;;;44.80;25.08;;;4.30;99.90;;;;;;5134129;28;20180;-61
2022/12/05 03:15:16;;;;;;;43.28;24.77;;;4.30;99.90;;;;;;5134119;28;20176;-62
2022/12/05 03:17:54;;;;;;;39.47;23.67;;;4.30;99.90;;;;;;5134100;28;20205;-62
2022/12/05 03:20:24;;;;;;;42.00;24.20;;;4.60;99.90;;;;;;5133926;28;20663;-62
2022/12/05 03:22:55;;;;;;;47.80;25.70;;;4.80;99.90;;;;;;5133965;28;20563;-62
2022/12/05 03:25:26;;;;;;;48.75;25.77;;;4.60;99.90;;;;;;5133879;28;20263;-61
2022/12/05 03:28:17;;;;;;;48.97;25.65;;;4.50;99.90;;;;;;5134144;28;20172;-62
2022/12/05 03:30:42;;;;;;;45.67;24.70;;;4.60;99.90;;;;;;5134098;28;20157;-62
2022/12/05 03:33:14;;;;;;;39.50;24.08;;;4.50;99.90;;;;;;5115577;28;20195;-62
2022/12/05 03:35:39;;;;;;;48.15;25.70;;;4.80;99.90;;;;;;5133964;28;20168;-61
2022/12/05 03:38:08;;;;;;;47.35;25.70;;;4.90;99.90;;;;;;5133570;28;20559;-62
2022/12/05 03:40:43;;;;;;;43.22;24.85;;;4.50;99.90;;;;;;5133729;28;20206;-59
2022/12/05 03:43:30;;;;;;;50.25;25.02;;;4.40;99.90;;;;;;5133728;28;20693;-62
2022/12/05 03:46:11;;;;;;;40.38;24.42;;;4.70;99.90;;;;;;5133786;28;20641;-62
2022/12/05 03:48:53;;;;;;;47.55;26.25;;;4.80;99.90;;;;;;5133773;28;20172;-62
2022/12/05 03:51:25;;;;;;;43.35;25.13;;;4.70;99.90;;;;;;5134108;28;20169;-62
2022/12/05 03:54:15;;;;;;;51.08;26.15;;;4.40;99.90;;;;;;5115572;27;20574;-62
2022/12/05 03:56:49;;;;;;;48.67;25.48;;;4.60;99.90;;;;;;5136461;27;20278;-61
2022/12/05 03:59:37;;;;;;;47.60;25.60;;;4.60;99.90;;;;;;5137444;27;20265;-62
2022/12/05 04:02:22;;;;;;;45.80;25.67;;;4.60;99.90;;;;;;5137556;27;20168;-62
2022/12/05 04:05:01;;;;;;;46.17;25.00;;;4.30;99.90;;;;;;5137635;27;20168;-62
2022/12/05 04:07:30;;;;;;;46.35;26.10;;;4.30;99.90;;;;;;5137177;27;20172;-62
2022/12/05 04:10:00;;;;;;;49.90;26.65;;;4.70;99.90;;;;;;5137407;27;20179;-62
2022/12/05 04:12:30;;;;;;;53.22;27.42;;;4.50;99.90;;;;;;5137012;27;20278;-62
2022/12/05 04:15:09;;;;;;;51.22;27.50;;;4.60;99.90;;;;;;5137114;27;20633;-62
2022/12/05 04:17:53;;;;;;;55.25;27.55;;;4.70;99.90;;;;;;5137033;27;20203;-62
2022/12/05 04:23:22;;;;;;;57.08;27.75;;;4.40;99.90;;;;;;5137223;27;20689;-62
2022/12/05 04:26:09;;;;;;;55.40;29.45;;;4.80;99.90;;;;;;5118339;27;20212;-62
2022/12/05 04:28:56;;;;;;;59.05;29.45;;;4.70;99.90;;;;;;5118570;27;20192;-62
2022/12/05 04:31:26;;;;;;;55.90;28.65;;;4.50;99.90;;;;;;5136067;27;20527;-62
2022/12/05 04:34:01;;;;;;;51.67;28.38;;;4.80;99.90;;;;;;5136737;27;20624;-62
2022/12/05 04:36:45;;;;;;;57.67;29.88;;;4.50;99.90;;;;;;5136673;27;20221;-62
2022/12/05 04:39:26;;;;;;;52.45;27.60;;;4.90;99.90;;;;;;5136793;27;20210;-61
2022/12/05 04:42:00;;;;;;;53.78;27.35;;;5.10;99.90;;;;;;5136606;27;20191;-61
2022/12/05 04:44:32;;;;;;;54.75;28.10;;;5.00;99.90;;;;;;5136577;27;20243;-62
2022/12/05 04:47:01;;;;;;;54.67;27.27;;;5.20;99.90;;;;;;5136736;27;20171;-62
2022/12/05 04:49:29;;;;;;;58.25;28.23;;;5.10;99.90;;;;;;5136361;27;20199;-61
2022/12/05 04:52:00;;;;;;;53.17;27.38;;;5.10;99.90;;;;;;5136512;27;20709;-61
2022/12/05 04:54:58;;;;;;;51.88;27.55;;;5.10;99.90;;;;;;5136519;27;20252;-61
2022/12/05 04:57:28;;;;;;;52.67;26.67;;;5.20;99.90;;;;;;5136278;27;20223;-61
2022/12/05 04:59:54;;;;;;;49.72;26.52;;;5.50;99.90;;;;;;5118076;27;20274;-61
2022/12/05 05:02:49;;;;;;;53.55;26.65;;;5.40;99.90;;;;;;5117955;27;20317;-61
2022/12/05 05:05:18;;;;;;;49.15;25.92;;;5.50;99.90;;;;;;5108200;27;20195;-61
2022/12/05 05:07:52;;;;;;;51.65;26.20;;;5.40;99.90;;;;;;5135743;27;20183;-61
2022/12/05 05:10:34;;;;;;;46.22;26.55;;;5.20;99.90;;;;;;5136176;27;20184;-61
2022/12/05 05:13:00;;;;;;;48.88;26.10;;;5.60;99.90;;;;;;5136135;27;20178;-62
2022/12/05 05:15:25;;;;;;;48.15;27.15;;;5.40;99.90;;;;;;5117747;27;20171;-62
2022/12/05 05:17:51;;;;;;;50.97;27.48;;;5.60;99.90;;;;;;5100354;27;20215;-62
2022/12/05 05:20:22;;;;;;;57.13;27.30;;;5.70;99.90;;;;;;5135748;27;20238;-61
2022/12/05 05:22:52;;;;;;;50.28;27.17;;;5.10;99.90;;;;;;5135988;27;20204;-62
2022/12/05 05:25:18;;;;;;;47.65;26.20;;;4.90;99.90;;;;;;5135966;27;20203;-62
2022/12/05 05:27:50;;;;;;;50.90;27.75;;;4.50;99.90;;;;;;5135549;27;20188;-62
2022/12/05 05:30:16;;;;;;;48.90;26.80;;;4.50;99.90;;;;;;5117244;27;20183;-61
2022/12/05 05:32:42;;;;;;;51.30;28.02;;;4.50;99.90;;;;;;5135490;27;20178;-61
2022/12/05 05:35:08;;;;;;;52.97;26.30;;;4.50;99.90;;;;;;5135724;27;20270;-61
2022/12/05 05:37:33;;;;;;;50.55;27.58;;;5.00;99.90;;;;;;5135398;27;20294;-62
2022/12/05 05:39:59;;;;;;;49.92;26.60;;;4.80;99.90;;;;;;5135642;27;20220;-61
2022/12/05 05:42:25;;;;;;;47.80;27.45;;;4.90;99.90;;;;;;5117281;27;20172;-62
2022/12/05 05:44:50;;;;;;;48.53;28.02;;;5.00;99.90;;;;;;5117003;27;20267;-62
2022/12/05 05:47:16;;;;;;;44.70;25.70;;;4.90;99.90;;;;;;5135227;27;20578;-61
2022/12/05 05:49:42;;;;;;;52.03;27.58;;;5.30;99.90;;;;;;5115512;27;20196;-62
2022/12/05 05:52:07;;;;;;;57.00;32.10;;;5.20;99.90;;;;;;5117181;27;20689;-61
2022/12/05 05:54:36;;;;;;;68.28;39.90;;;5.50;99.90;;;;;;5135275;27;20180;-62
2022/12/05 05:57:02;;;;;;;104.60;57.05;;;5.50;99.90;;;;;;5116934;27;20172;-62
2022/12/05 05:59:28;;;;;;;98.75;54.55;;;5.60;99.90;;;;;;5116842;27;20667;-59
2022/12/05 06:01:53;;;;;;;77.50;44.70;;;5.60;99.90;;;;;;5116594;27;20176;-60
2022/12/05 06:04:19;;;;;;;56.15;30.70;;;5.40;99.90;;;;;;5115801;27;20174;-60
2022/12/05 06:06:45;;;;;;;53.22;31.02;;;5.30;99.90;;;;;;5116876;27;20199;-60
2022/12/05 06:09:10;;;;;;;49.80;30.65;;;5.40;99.90;;;;;;5116694;27;20180;-60
2022/12/05 06:11:36;;;;;;;48.55;28.75;;;5.30;99.90;;;;;;5134671;27;20179;-61
2022/12/05 06:14:01;;;;;;;49.83;27.70;;;5.20;99.90;;;;;;5116497;27;20176;-60
2022/12/05 06:16:29;;;;;;;46.80;28.17;;;5.00;99.90;;;;;;5134603;27;20169;-60
2022/12/05 06:18:57;;;;;;;43.30;26.27;;;4.90;99.90;;;;;;5133969;27;20253;-61
2022/12/05 06:21:24;;;;;;;47.53;26.83;;;4.70;99.90;;;;;;5134514;27;20175;-61
2022/12/05 06:23:49;;;;;;;46.85;26.70;;;5.00;99.90;;;;;;5099526;27;20176;-60
2022/12/05 06:26:18;;;;;;;54.30;28.63;;;5.00;99.90;;;;;;5134515;27;20172;-61
2022/12/05 06:28:44;;;;;;;47.90;26.60;;;4.80;99.90;;;;;;5134582;27;20212;-61
2022/12/05 06:31:13;;;;;;;50.13;29.73;;;4.50;99.90;;;;;;5134627;27;20177;-60
2022/12/05 06:33:39;;;;;;;49.72;28.80;;;4.60;99.90;;;;;;5116335;27;20217;-61
2022/12/05 06:36:08;;;;;;;52.13;30.13;;;4.80;99.90;;;;;;5134457;27;20176;-60
2022/12/05 06:38:34;;;;;;;46.72;27.90;;;5.10;99.90;;;;;;5134304;27;20295;-60
2022/12/05 06:41:04;;;;;;;52.53;30.15;;;4.50;99.90;;;;;;5134181;27;20273;-61
2022/12/05 06:43:30;;;;;;;46.67;28.13;;;4.40;99.90;;;;;;5134331;27;20171;-61
2022/12/05 06:45:56;;;;;;;51.22;28.90;;;4.40;99.90;;;;;;5134446;27;20210;-60
2022/12/05 06:48:22;;;;;;;47.25;27.73;;;4.30;99.90;;;;;;5134249;27;20232;-61
2022/12/05 06:50:52;;;;;;;44.88;26.20;;;4.00;99.90;;;;;;5116118;27;20176;-61
2022/12/05 06:53:19;;;;;;;50.60;27.98;;;4.30;99.90;;;;;;5134211;27;20172;-61
2022/12/05 06:55:53;;;;;;;48.70;27.77;;;4.60;99.90;;;;;;5134066;27;20183;-60
2022/12/05 06:58:19;;;;;;;48.00;26.85;;;4.70;99.90;;;;;;5134126;27;20295;-60
2022/12/05 07:03:29;;;;;;;50.38;28.45;;;4.70;99.90;;;;;;5134379;28;20183;-60
2022/12/05 07:05:54;;;;;;;53.25;29.33;;;4.60;99.90;;;;;;5134048;28;20180;-61
2022/12/05 07:08:20;;;;;;;59.00;35.80;;;4.20;99.90;;;;;;5133976;28;20176;-60
2022/12/05 07:10:55;;;;;;;57.78;31.15;;;4.30;99.90;;;;;;5134392;28;20231;-60
2022/12/05 07:13:20;;;;;;;58.10;29.55;;;4.50;99.90;;;;;;5115860;28;20179;-60
2022/12/05 07:15:47;;;;;;;56.70;29.23;;;4.90;99.90;;;;;;5115811;28;20180;-60
2022/12/05 07:18:14;;;;;;;61.47;33.25;;;4.90;99.90;;;;;;5134067;28;20228;-60
2022/12/05 07:20:40;;;;;;;60.22;29.40;;;4.80;99.90;;;;;;5133932;28;20196;-60
2022/12/05 07:23:06;;;;;;;58.75;30.45;;;5.20;99.90;;;;;;5133821;28;20228;-60
2022/12/05 07:25:32;;;;;;;54.10;28.85;;;5.10;99.90;;;;;;5115784;28;20176;-60
2022/12/05 07:27:58;;;;;;;54.90;29.80;;;5.00;99.90;;;;;;5115507;28;20198;-61
2022/12/05 07:30:23;;;;;;;52.80;28.33;;;5.40;99.90;;;;;;5118787;27;20652;-60
2022/12/05 07:32:49;;;;;;;60.90;29.83;;;5.40;99.90;;;;;;5137949;27;20184;-60
2022/12/05 07:35:15;;;;;;;64.03;29.98;;;5.20;99.90;;;;;;5119603;27;20187;-60
2022/12/05 07:37:40;;;;;;;53.55;29.33;;;5.10;99.90;;;;;;5137769;27;20622;-61
2022/12/05 07:40:07;;;;;;;55.60;30.50;;;5.40;99.90;;;;;;5137868;27;20180;-61
2022/12/05 07:42:33;;;;;;;54.92;29.88;;;5.40;99.90;;;;;;5137902;27;20180;-60
2022/12/05 07:44:59;;;;;;;58.90;31.20;;;5.40;99.90;;;;;;5102470;27;20278;-60
2022/12/05 07:47:24;;;;;;;58.95;32.58;;;5.10;99.90;;;;;;5137659;27;20224;-60
2022/12/05 07:49:54;;;;;;;58.33;31.48;;;5.10;99.90;;;;;;5119336;27;20184;-60
2022/12/05 07:52:19;;;;;;;53.05;30.13;;;5.20;99.90;;;;;;5137467;27;20536;-60
2022/12/05 07:54:45;;;;;;;58.20;29.20;;;4.80;99.90;;;;;;5137739;27;20255;-59
2022/12/05 07:57:11;;;;;;;52.03;29.00;;;4.90;99.90;;;;;;5137499;27;20224;-60
2022/12/05 07:59:36;;;;;;;55.50;31.40;;;4.80;99.90;;;;;;5137499;27;20259;-59
2022/12/05 08:02:02;;;;;;;63.80;31.02;;;4.90;99.90;;;;;;5119010;27;20205;-59
2022/12/05 08:04:27;;;;;;;58.42;30.08;;;5.10;99.90;;;;;;5137578;27;20199;-60
2022/12/05 08:06:53;;;;;;;61.03;30.48;;;5.30;99.90;;;;;;5118758;27;20182;-59
2022/12/05 08:09:19;;;;;;;53.15;29.48;;;5.30;99.90;;;;;;5119130;27;20184;-60
2022/12/05 08:11:44;;;;;;;58.83;30.63;;;5.40;99.90;;;;;;5137320;27;20537;-59
2022/12/05 08:14:10;;;;;;;56.83;30.75;;;5.30;99.90;;;;;;5118887;27;20392;-60
2022/12/05 08:16:36;;;;;;;62.63;32.22;;;5.50;99.90;;;;;;5137040;27;20172;-60
2022/12/05 08:19:05;;;;;;;55.60;31.42;;;5.70;99.90;;;;;;5136899;27;20211;-60
2022/12/05 08:21:31;;;;;;;53.40;30.20;;;5.80;99.90;;;;;;5136954;27;20165;-60
2022/12/05 08:23:57;;;;;;;63.90;31.08;;;6.10;99.90;;;;;;5118679;27;20701;-59
2022/12/05 08:26:26;;;;;;;58.75;30.55;;;6.20;99.90;;;;;;5137076;27;20271;-59
2022/12/05 08:28:58;;;;;;;60.38;30.52;;;6.30;99.90;;;;;;5118297;27;20168;-59
2022/12/05 08:31:25;;;;;;;67.03;35.00;;;5.90;99.90;;;;;;5136817;27;20180;-60
2022/12/05 08:33:52;;;;;;;65.68;32.22;;;5.90;99.90;;;;;;5136649;27;20180;-59
2022/12/05 08:36:18;;;;;;;64.18;34.67;;;5.90;99.90;;;;;;5136868;27;20221;-60
2022/12/05 08:38:45;;;;;;;57.40;30.25;;;6.10;99.90;;;;;;5136538;27;20219;-59
2022/12/05 08:41:13;;;;;;;67.30;33.35;;;6.00;99.90;;;;;;5117641;27;20282;-60
2022/12/05 08:43:40;;;;;;;60.63;31.88;;;6.20;99.90;;;;;;5136522;27;20170;-60
2022/12/05 08:46:06;;;;;;;55.72;32.38;;;5.80;99.90;;;;;;5136534;27;20167;-59
2022/12/05 08:48:33;;;;;;;63.92;36.38;;;5.70;99.90;;;;;;5136387;27;20272;-59
2022/12/05 08:51:03;;;;;;;59.85;30.75;;;6.20;99.90;;;;;;5136613;27;20549;-60
2022/12/05 08:53:29;;;;;;;56.45;30.25;;;6.40;99.90;;;;;;5136535;27;20252;-60
2022/12/05 08:55:54;;;;;;;52.70;29.98;;;6.60;99.90;;;;;;5118084;27;20331;-59
2022/12/05 08:58:20;;;;;;;57.72;40.65;;;6.50;99.90;;;;;;5117898;27;20208;-60
2022/12/05 09:00:46;;;;;;;53.75;30.02;;;6.50;99.90;;;;;;5117831;27;20175;-60
2022/12/05 09:03:12;;;;;;;51.63;29.90;;;6.60;99.90;;;;;;5118169;27;20210;-60
2022/12/05 09:05:38;;;;;;;54.15;29.55;;;6.80;99.90;;;;;;5136289;27;20262;-60
2022/12/05 09:08:03;;;;;;;57.30;30.70;;;6.80;99.90;;;;;;5136192;27;20218;-60
2022/12/05 09:10:29;;;;;;;54.20;29.95;;;7.00;99.90;;;;;;5136290;27;20199;-60
2022/12/05 09:12:58;;;;;;;52.83;29.38;;;7.00;99.90;;;;;;5135868;27;20660;-60
2022/12/05 09:15:24;;;;;;;68.15;44.80;;;7.00;99.90;;;;;;5117478;27;20204;-59
2022/12/05 09:17:50;;;;;;;59.42;40.90;;;7.00;99.90;;;;;;5135720;27;20661;-60
2022/12/05 09:20:15;;;;;;;63.58;43.15;;;6.90;99.90;;;;;;5117671;27;20175;-59
2022/12/05 09:22:41;;;;;;;55.20;41.08;;;6.90;99.90;;;;;;5135746;27;20641;-59
2022/12/05 09:25:08;;;;;;;50.95;38.85;;;7.00;99.90;;;;;;5117547;27;20191;-59
2022/12/05 09:27:33;;;;;;;53.35;31.55;;;7.00;99.90;;;;;;5135749;27;20183;-59
2022/12/05 09:29:59;;;;;;;54.42;31.50;;;7.10;99.90;;;;;;5135567;27;20171;-60
2022/12/05 09:32:25;;;;;;;45.75;29.85;;;7.00;99.90;;;;;;5117194;27;20180;-60
2022/12/05 09:34:50;;;;;;;49.05;29.08;;;7.00;99.90;;;;;;5135549;27;20181;-60
2022/12/05 09:37:17;;;;;;;49.08;28.05;;;6.80;99.90;;;;;;5117289;27;20663;-60
2022/12/05 09:39:43;;;;;;;42.90;26.42;;;6.70;99.90;;;;;;5135506;27;20179;-60
2022/12/05 09:43:04;;;;;;;45.50;26.38;;;6.90;99.90;;;;;;5135339;27;20195;-60
2022/12/05 09:45:59;;;;;;;62.00;41.10;;;7.10;99.90;;;;;;5058984;27;20237;-60
2022/12/05 09:48:24;;;;;;;52.40;29.23;;;7.00;99.90;;;;;;5135360;27;20600;-60
2022/12/05 09:51:02;;;;;;;45.33;26.67;;;7.10;99.90;;;;;;5116919;27;20263;-60
2022/12/05 09:53:29;;;;;;;49.25;28.60;;;7.10;99.90;;;;;;5135394;27;20190;-59
2022/12/05 09:56:17;;;;;;;50.58;38.67;;;7.10;99.90;;;;;;5135196;27;20176;-60
2022/12/05 09:58:48;;;;;;;46.88;28.10;;;7.00;99.90;;;;;;5135164;27;20207;-60
2022/12/05 10:01:48;;;;;;;48.03;28.23;;;7.20;99.90;;;;;;5134996;27;20218;-60
2022/12/05 10:04:48;;;;;;;41.80;26.65;;;7.40;99.90;;;;;;5080360;27;20447;-60
2022/12/05 10:07:20;;;;;;;48.17;27.50;;;7.40;99.90;;;;;;5134948;27;20164;-60
2022/12/05 10:09:57;;;;;;;43.17;26.88;;;7.50;99.90;;;;;;5134741;27;20176;-61
2022/12/05 10:12:26;;;;;;;45.85;29.23;;;7.40;99.90;;;;;;5134994;27;20220;-60
2022/12/05 10:15:02;;;;;;;40.70;26.15;;;7.20;99.90;;;;;;5134900;27;20192;-60
2022/12/05 10:17:37;;;;;;;42.97;26.40;;;7.40;99.90;;;;;;5134757;27;20229;-59
2022/12/05 10:20:23;;;;;;;38.03;24.50;;;7.60;99.90;;;;;;5134653;27;20255;-60
2022/12/05 10:22:57;;;;;;;39.70;24.20;;;7.60;99.90;;;;;;5134775;27;20176;-60
2022/12/05 10:25:27;;;;;;;33.40;22.40;;;7.60;99.90;;;;;;5134861;27;20624;-60
2022/12/05 10:27:58;;;;;;;34.28;22.33;;;7.80;99.90;;;;;;5134661;27;20257;-60
2022/12/05 10:30:29;;;;;;;37.03;31.77;;;7.60;99.90;;;;;;5134515;27;20164;-59
2022/12/05 10:33:10;;;;;;;28.23;25.23;;;7.40;99.90;;;;;;5134808;27;20167;-60
2022/12/05 10:35:38;;;;;;;32.67;26.77;;;7.00;99.90;;;;;;5134851;27;20651;-60
2022/12/05 10:38:20;;;;;;;31.92;28.58;;;7.00;99.90;;;;;;5134424;27;20235;-59
2022/12/05 10:40:50;;;;;;;31.42;27.23;;;6.80;99.90;;;;;;5134203;27;20653;-59
2022/12/05 10:43:24;;;;;;;33.35;27.35;;;6.80;99.90;;;;;;5134332;27;20164;-60
2022/12/05 10:45:50;;;;;;;29.05;25.67;;;6.80;99.90;;;;;;5134856;27;20520;-60
2022/12/05 10:48:18;;;;;;;33.85;26.38;;;6.40;99.90;;;;;;5134364;27;20175;-59
2022/12/05 10:50:47;;;;;;;31.23;26.42;;;6.30;99.90;;;;;;5134308;27;20172;-59
2022/12/05 10:53:25;;;;;;;39.17;35.05;;;6.30;99.90;;;;;;5134098;27;20168;-60
2022/12/05 10:55:51;;;;;;;31.98;28.50;;;6.50;99.90;;;;;;5134597;27;20172;-59
2022/12/05 10:58:35;;;;;;;36.80;25.13;;;6.80;99.90;;;;;;5115797;28;20782;-59
2022/12/05 11:01:12;;;;;;;32.40;22.67;;;6.80;99.90;;;;;;5134280;28;20179;-60
2022/12/05 11:03:39;;;;;;;30.20;21.30;;;6.90;99.90;;;;;;5135283;27;20631;-60
2022/12/05 11:06:25;;;;;;;29.73;20.85;;;7.00;99.90;;;;;;5140902;27;20186;-59
2022/12/05 11:09:19;;;;;;;30.92;21.90;;;7.10;99.90;;;;;;5139907;27;20215;-60
2022/12/05 11:12:03;;;;;;;28.95;21.63;;;7.40;99.90;;;;;;5122369;27;20603;-60
2022/12/05 11:14:30;;;;;;;26.90;20.65;;;6.80;99.90;;;;;;5140777;27;20516;-60
2022/12/05 11:16:57;;;;;;;27.85;24.92;;;6.60;99.90;;;;;;5140991;27;20183;-60
2022/12/05 11:19:23;;;;;;;25.55;23.00;;;6.20;99.90;;;;;;5140833;27;20216;-60
2022/12/05 11:21:49;;;;;;;40.88;37.33;;;6.10;99.90;;;;;;5140891;27;20555;-60
2022/12/05 11:24:25;;;;;;;44.95;41.03;;;6.30;99.90;;;;;;5140873;27;20195;-60
2022/12/05 11:26:51;;;;;;;29.50;26.50;;;6.40;99.90;;;;;;5140736;27;20640;-60
2022/12/05 11:29:35;;;;;;;22.73;20.42;;;6.50;99.90;;;;;;5140953;27;20210;-60
2022/12/05 11:32:05;;;;;;;22.63;20.45;;;6.70;99.90;;;;;;5140844;27;20189;-60
2022/12/05 11:34:45;;;;;;;22.33;20.08;;;6.70;99.90;;;;;;5140782;27;20271;-60
2022/12/05 11:37:16;;;;;;;24.20;21.80;;;6.70;99.90;;;;;;5140595;27;20167;-60
2022/12/05 11:39:42;;;;;;;24.02;21.63;;;7.00;99.90;;;;;;5141078;27;20165;-59
2022/12/05 11:42:26;;;;;;;21.55;19.30;;;6.90;99.90;;;;;;5122425;27;20240;-60
2022/12/05 11:45:01;;;;;;;18.92;17.13;;;7.20;99.90;;;;;;5140687;27;20176;-60
2022/12/05 11:47:51;;;;;;;17.17;15.48;;;7.00;99.90;;;;;;5140563;27;20175;-60
2022/12/05 11:50:23;;;;;;;18.40;16.58;;;7.10;99.90;;;;;;5140799;27;20195;-60
2022/12/05 11:53:14;;;;;;;18.10;16.40;;;7.40;99.90;;;;;;5140531;27;20224;-60
2022/12/05 11:55:51;;;;;;;21.80;19.80;;;7.20;99.90;;;;;;5140572;27;20255;-60
2022/12/05 11:58:29;;;;;;;18.67;16.80;;;7.40;99.90;;;;;;5140354;27;20195;-60
2022/12/05 12:01:20;;;;;;;19.75;17.77;;;7.40;99.90;;;;;;5140485;27;20663;-60
2022/12/05 12:04:20;;;;;;;18.48;16.65;;;7.40;99.90;;;;;;5140563;27;20191;-59
2022/12/05 12:06:45;;;;;;;17.50;15.80;;;7.10;99.90;;;;;;5140579;27;20165;-60
2022/12/05 12:09:31;;;;;;;16.92;15.23;;;7.20;99.90;;;;;;5140523;27;20267;-60
2022/12/05 12:12:06;;;;;;;15.25;13.75;;;7.10;99.90;;;;;;5140466;27;20236;-60
2022/12/05 12:14:57;;;;;;;15.07;13.68;;;7.30;99.90;;;;;;5121647;27;20578;-60
2022/12/05 12:17:41;;;;;;;15.52;14.02;;;7.10;99.90;;;;;;5136427;27;20638;-60
2022/12/05 12:20:35;;;;;;;16.88;15.48;;;7.10;99.90;;;;;;5136969;27;20176;-60
2022/12/05 12:23:18;;;;;;;15.95;12.02;;;7.10;99.90;;;;;;5136868;27;20168;-60
2022/12/05 12:26:10;;;;;;;12.95;11.18;;;7.30;99.90;;;;;;5137173;27;20168;-60
2022/12/05 12:28:54;;;;;;;16.75;11.43;;;7.40;99.90;;;;;;5136923;27;20637;-60
2022/12/05 12:31:57;;;;;;;15.00;11.95;;;7.50;99.90;;;;;;5137076;27;20178;-59
2022/12/05 12:34:33;;;;;;;17.00;15.20;;;7.50;99.90;;;;;;5136903;27;20165;-60
2022/12/05 12:37:30;;;;;;;17.17;15.48;;;7.50;99.90;;;;;;5136723;27;20258;-59
2022/12/05 12:40:01;;;;;;;17.00;15.45;;;7.60;99.90;;;;;;5122951;27;20199;-59
2022/12/05 12:42:40;;;;;;;17.40;15.60;;;7.60;99.90;;;;;;5136757;27;20173;-60
2022/12/05 12:45:38;;;;;;;17.80;15.77;;;7.50;99.90;;;;;;5136511;27;20177;-59
2022/12/05 12:48:32;;;;;;;18.67;16.88;;;7.60;99.90;;;;;;5136750;27;20295;-60
2022/12/05 12:51:01;;;;;;;18.55;16.67;;;7.60;99.90;;;;;;5136618;27;20172;-60
2022/12/05 12:53:44;;;;;;;19.38;17.48;;;7.50;99.90;;;;;;5118155;27;20220;-60
2022/12/05 12:56:19;;;;;;;18.05;16.25;;;7.20;99.90;;;;;;5136344;27;20257;-60
2022/12/05 12:58:47;;;;;;;18.90;16.45;;;7.20;99.90;;;;;;5136440;27;20203;-60
2022/12/05 13:01:26;;;;;;;18.45;16.63;;;7.10;99.90;;;;;;5136426;27;20173;-60
2022/12/05 13:04:11;;;;;;;18.48;16.67;;;7.10;99.90;;;;;;5136187;27;20172;-60
2022/12/05 13:06:57;;;;;;;20.25;13.18;;;7.10;99.90;;;;;;5136063;27;20199;-60